Time;durP1;ratioP1;P1;durP2;ratioP2;P2;SDS_P1;SDS_P2;PMS_P1;PMS_P2;Temp;Humidity;BMP_temperature;BMP_pressure;BME280_temperature;BME280_humidity;BME280_pressure;Samples;Min_cycle;Max_cycle;Signal;HPM_P1;HPM_P2
2023/12/12 00:00:19;;;;;;;11.40;10.10;;;;;;;4.53;100.00;96625.28;107050;1273;22610;-78
2023/12/12 00:03:07;;;;;;;11.00;9.30;;;;;;;4.53;100.00;96625.77;107062;1267;22643;-78
2023/12/12 00:05:35;;;;;;;14.60;10.60;;;;;;;4.59;100.00;96622.70;107070;1271;25293;-78
2023/12/12 00:08:03;;;;;;;17.20;12.50;;;;;;;4.59;100.00;96623.33;107344;1274;22530;-78
2023/12/12 00:10:31;;;;;;;13.90;11.20;;;;;;;4.58;100.00;96629.59;107390;1273;22521;-78
2023/12/12 00:12:59;;;;;;;15.40;11.50;;;;;;;4.60;100.00;96631.95;107432;1273;22702;-78
2023/12/12 00:15:27;;;;;;;12.90;8.90;;;;;;;4.60;100.00;96644.34;107416;1267;22571;-78
2023/12/12 00:17:55;;;;;;;14.10;10.30;;;;;;;4.61;100.00;96641.97;107029;1274;23149;-77
2023/12/12 00:20:23;;;;;;;15.80;10.30;;;;;;;4.61;100.00;96639.56;107053;1274;22710;-77
2023/12/12 00:22:51;;;;;;;17.70;10.70;;;;;;;4.60;100.00;96645.02;106853;1274;22639;-77
2023/12/12 00:25:19;;;;;;;18.00;11.00;;;;;;;4.55;100.00;96651.70;106982;1273;25522;-79
2023/12/12 00:27:47;;;;;;;12.20;10.60;;;;;;;4.55;100.00;96657.32;107012;1251;24426;-77
2023/12/12 00:30:16;;;;;;;12.20;9.20;;;;;;;4.56;100.00;96667.98;106990;1251;22827;-77
2023/12/12 00:32:44;;;;;;;16.50;11.80;;;;;;;4.57;100.00;96659.11;106969;1274;22528;-78
2023/12/12 00:35:12;;;;;;;13.80;10.30;;;;;;;4.60;100.00;96659.86;106967;1263;22528;-77
2023/12/12 00:37:40;;;;;;;14.20;10.70;;;;;;;4.57;100.00;96667.80;106999;1272;22543;-77
2023/12/12 00:40:10;;;;;;;14.90;11.40;;;;;;;4.53;100.00;96670.26;107088;1273;22524;-77
2023/12/12 00:42:38;;;;;;;14.00;10.10;;;;;;;4.53;100.00;96671.33;107009;1271;25271;-77
2023/12/12 00:45:07;;;;;;;13.30;9.60;;;;;;;4.52;100.00;96673.27;107039;1261;24487;-77
2023/12/12 00:47:35;;;;;;;14.50;11.30;;;;;;;4.53;100.00;96675.91;106817;1272;25319;-77
2023/12/12 00:50:03;;;;;;;13.10;10.10;;;;;;;4.53;100.00;96683.70;106956;1274;24205;-77
2023/12/12 00:52:32;;;;;;;15.20;10.70;;;;;;;4.50;100.00;96683.55;106947;1274;25414;-77
2023/12/12 00:55:00;;;;;;;13.00;10.60;;;;;;;4.45;100.00;96676.19;106914;1273;24263;-77
2023/12/12 00:57:28;;;;;;;14.50;10.70;;;;;;;4.44;100.00;96686.17;106955;1274;22767;-77
2023/12/12 00:59:56;;;;;;;15.50;11.10;;;;;;;4.45;100.00;96678.60;106935;1270;23890;-77
2023/12/12 01:02:25;;;;;;;14.50;9.50;;;;;;;4.40;100.00;96689.98;106990;1273;22524;-77
2023/12/12 01:04:53;;;;;;;15.60;11.20;;;;;;;4.37;100.00;96693.69;106966;1273;25226;-77
2023/12/12 01:07:22;;;;;;;17.90;11.30;;;;;;;4.37;100.00;96704.78;106981;1251;23124;-77
2023/12/12 01:09:49;;;;;;;12.20;10.30;;;;;;;4.33;100.00;96702.66;106949;1274;22536;-76
2023/12/12 01:12:18;;;;;;;14.30;11.10;;;;;;;4.32;100.00;96704.42;107019;1273;23320;-76
2023/12/12 01:14:46;;;;;;;11.80;10.20;;;;;;;4.32;100.00;96720.80;106988;1274;25349;-76
2023/12/12 01:17:14;;;;;;;11.60;9.70;;;;;;;4.31;100.00;96714.52;107000;1274;25424;-78
2023/12/12 01:19:42;;;;;;;13.30;10.30;;;;;;;4.29;100.00;96712.90;107065;1274;22531;-78
2023/12/12 01:22:10;;;;;;;15.00;11.40;;;;;;;4.29;100.00;96715.71;107003;1272;22545;-79
2023/12/12 01:24:38;;;;;;;19.40;14.20;;;;;;;4.26;100.00;96719.00;107371;1273;22532;-79
2023/12/12 01:27:06;;;;;;;14.30;12.20;;;;;;;4.25;100.00;96716.46;107280;1274;22520;-78
2023/12/12 01:29:34;;;;;;;13.40;10.70;;;;;;;4.23;100.00;96719.20;107238;1274;22647;-79
2023/12/12 01:32:02;;;;;;;12.80;10.20;;;;;;;4.22;100.00;96721.25;107275;1262;22859;-79
2023/12/12 01:34:31;;;;;;;11.40;9.20;;;;;;;4.22;100.00;96720.50;107276;1274;23564;-78
2023/12/12 01:36:59;;;;;;;14.00;9.90;;;;;;;4.22;100.00;96716.60;107220;1263;22529;-79
2023/12/12 01:39:27;;;;;;;12.10;10.10;;;;;;;4.24;100.00;96717.77;107286;1274;23918;-78
2023/12/12 01:41:55;;;;;;;12.80;10.30;;;;;;;4.23;100.00;96713.17;107501;1273;25144;-79
2023/12/12 01:44:23;;;;;;;14.90;11.50;;;;;;;4.23;100.00;96711.69;107560;1273;22537;-79
2023/12/12 01:46:51;;;;;;;14.80;9.90;;;;;;;4.20;100.00;96713.36;107815;1267;22676;-77
2023/12/12 01:49:19;;;;;;;13.50;9.80;;;;;;;4.23;100.00;96716.52;107610;1274;23882;-79
2023/12/12 01:51:48;;;;;;;13.20;10.10;;;;;;;4.24;100.00;96717.77;107432;1274;22697;-79
2023/12/12 01:54:18;;;;;;;17.70;11.00;;;;;;;4.23;100.00;96722.89;107355;1275;22546;-79
2023/12/12 01:56:49;;;;;;;15.00;10.50;;;;;;;4.25;100.00;96726.27;107363;1274;25431;-78
2023/12/12 01:59:19;;;;;;;13.50;10.00;;;;;;;4.21;100.00;96732.14;106936;1273;22518;-78
2023/12/12 02:01:48;;;;;;;15.60;10.50;;;;;;;4.19;100.00;96736.48;107341;1266;25416;-78
2023/12/12 02:04:17;;;;;;;14.90;10.20;;;;;;;4.20;100.00;96730.77;107240;1274;22645;-79
2023/12/12 02:06:48;;;;;;;17.50;10.70;;;;;;;4.21;100.00;96729.20;107323;1257;22642;-77
2023/12/12 02:09:16;;;;;;;13.00;10.20;;;;;;;4.22;100.00;96723.16;107249;1263;22630;-78
2023/12/12 02:11:44;;;;;;;14.30;10.50;;;;;;;4.24;100.00;96736.31;107292;1274;23209;-78
2023/12/12 02:14:12;;;;;;;11.00;9.40;;;;;;;4.22;100.00;96738.14;107202;1264;26650;-78
2023/12/12 02:16:40;;;;;;;13.20;8.70;;;;;;;4.23;100.00;96741.02;106996;1275;25611;-78
2023/12/12 02:19:08;;;;;;;12.50;8.70;;;;;;;4.22;100.00;96740.02;107078;1260;22527;-79
2023/12/12 02:21:36;;;;;;;10.70;8.50;;;;;;;4.22;100.00;96744.94;107433;1274;22630;-77
2023/12/12 02:24:05;;;;;;;11.10;8.70;;;;;;;4.21;100.00;96738.44;107497;1273;26084;-79
2023/12/12 02:26:33;;;;;;;10.10;8.40;;;;;;;4.20;100.00;96737.91;107121;1273;23882;-78
2023/12/12 02:29:01;;;;;;;15.30;10.70;;;;;;;4.22;100.00;96732.06;107398;1263;23876;-78
2023/12/12 02:31:29;;;;;;;13.40;9.60;;;;;;;4.20;100.00;96734.77;107395;1273;25409;-77
2023/12/12 02:33:57;;;;;;;12.20;9.10;;;;;;;4.19;100.00;96733.30;107359;1273;24208;-78
2023/12/12 02:36:25;;;;;;;13.00;9.00;;;;;;;4.18;100.00;96734.32;107480;1273;22942;-77
2023/12/12 02:38:53;;;;;;;12.10;9.00;;;;;;;4.19;100.00;96739.00;107077;1273;22557;-77
2023/12/12 02:41:21;;;;;;;10.30;8.20;;;;;;;4.18;100.00;96740.55;107055;1273;22547;-77
2023/12/12 02:43:49;;;;;;;13.80;9.10;;;;;;;4.15;100.00;96738.88;107147;1274;25303;-78
2023/12/12 02:46:17;;;;;;;9.40;8.40;;;;;;;4.13;100.00;96741.41;107280;1274;23916;-78
2023/12/12 02:48:45;;;;;;;10.40;8.80;;;;;;;4.14;100.00;96741.61;107079;1273;25421;-78
2023/12/12 02:51:13;;;;;;;11.50;8.70;;;;;;;4.15;100.00;96741.76;106993;1274;22639;-78
2023/12/12 02:53:41;;;;;;;14.00;9.90;;;;;;;4.15;100.00;96743.08;107034;1267;24236;-78
2023/12/12 02:56:09;;;;;;;10.60;8.10;;;;;;;4.15;100.00;96753.55;106981;1273;25297;-78
2023/12/12 02:58:37;;;;;;;10.10;8.50;;;;;;;4.10;100.00;96750.08;106980;1258;22529;-78
2023/12/12 03:01:05;;;;;;;12.10;8.30;;;;;;;4.10;100.00;96747.46;106866;1274;23879;-77
2023/12/12 03:03:34;;;;;;;11.90;8.90;;;;;;;4.13;100.00;96746.70;107065;1273;22555;-77
2023/12/12 03:06:02;;;;;;;11.50;8.90;;;;;;;4.14;100.00;96758.50;107038;1274;24193;-78
2023/12/12 03:08:30;;;;;;;12.40;9.00;;;;;;;4.12;100.00;96759.55;106988;1273;22550;-78
2023/12/12 03:10:58;;;;;;;13.70;8.50;;;;;;;4.09;100.00;96759.90;107037;1273;24463;-78
2023/12/12 03:13:26;;;;;;;11.50;9.00;;;;;;;4.10;100.00;96762.87;107021;1274;25249;-78
2023/12/12 03:15:54;;;;;;;10.50;8.00;;;;;;;4.10;100.00;96764.91;107042;1259;22688;-77
2023/12/12 03:18:22;;;;;;;11.40;7.70;;;;;;;4.12;100.00;96769.99;106994;1273;23130;-77
2023/12/12 03:20:50;;;;;;;13.70;7.80;;;;;;;4.12;100.00;96772.78;106984;1273;22530;-77
2023/12/12 03:23:18;;;;;;;12.60;8.00;;;;;;;4.13;100.00;96771.64;106995;1268;25402;-77
2023/12/12 03:25:46;;;;;;;12.70;8.10;;;;;;;4.11;100.00;96772.13;107305;1267;22639;-77
2023/12/12 03:28:14;;;;;;;11.20;7.80;;;;;;;4.12;100.00;96774.64;107044;1267;24304;-78
2023/12/12 03:30:42;;;;;;;10.80;7.60;;;;;;;4.11;100.00;96782.27;107025;1261;22530;-77
2023/12/12 03:33:10;;;;;;;13.60;7.30;;;;;;;4.14;100.00;96779.67;107017;1256;22544;-77
2023/12/12 03:35:38;;;;;;;9.60;7.30;;;;;;;4.16;100.00;96780.67;107062;1267;22630;-78
2023/12/12 03:38:06;;;;;;;10.00;7.40;;;;;;;4.19;100.00;96779.64;107346;1268;24381;-77
2023/12/12 03:40:34;;;;;;;11.30;8.00;;;;;;;4.17;100.00;96786.86;107107;1263;23000;-77
2023/12/12 03:43:02;;;;;;;11.60;7.40;;;;;;;4.18;100.00;96794.41;106979;1274;22921;-79
2023/12/12 03:45:30;;;;;;;11.50;8.00;;;;;;;4.19;100.00;96799.42;107072;1263;23880;-78
2023/12/12 03:47:58;;;;;;;9.90;7.30;;;;;;;4.18;100.00;96803.36;107331;1259;24265;-79
2023/12/12 03:50:26;;;;;;;11.10;7.30;;;;;;;4.18;100.00;96795.97;107426;1273;22647;-79
2023/12/12 03:52:54;;;;;;;11.20;7.60;;;;;;;4.19;100.00;96799.98;107346;1274;24209;-79
2023/12/12 03:55:23;;;;;;;11.70;8.30;;;;;;;4.18;100.00;96800.81;107351;1272;25465;-80
2023/12/12 03:57:51;;;;;;;11.20;7.00;;;;;;;4.19;100.00;96799.04;107347;1268;24414;-78
2023/12/12 04:00:19;;;;;;;11.00;8.00;;;;;;;4.19;100.00;96803.14;107279;1274;24372;-78
2023/12/12 04:02:47;;;;;;;12.40;8.10;;;;;;;4.22;100.00;96801.30;107366;1260;25486;-78
2023/12/12 04:05:15;;;;;;;12.40;7.80;;;;;;;4.26;100.00;96799.86;106951;1272;22634;-79
2023/12/12 04:07:43;;;;;;;11.50;7.70;;;;;;;4.26;100.00;96797.57;107322;1260;25424;-78
2023/12/12 04:10:11;;;;;;;14.60;9.10;;;;;;;4.22;100.00;96796.28;107285;1274;22531;-77
2023/12/12 04:12:39;;;;;;;11.40;8.10;;;;;;;4.20;100.00;96800.82;107044;1273;22527;-77
2023/12/12 04:15:08;;;;;;;12.20;8.50;;;;;;;4.19;100.00;96801.58;107095;1273;24357;-77
2023/12/12 04:17:36;;;;;;;12.30;8.60;;;;;;;4.20;100.00;96801.89;107149;1273;22605;-78
2023/12/12 04:20:05;;;;;;;14.60;9.40;;;;;;;4.21;100.00;96803.81;107097;1270;24001;-77
2023/12/12 04:22:33;;;;;;;16.30;8.60;;;;;;;4.20;100.00;96808.24;107022;1258;22556;-78
2023/12/12 04:25:01;;;;;;;12.90;10.00;;;;;;;4.21;100.00;96811.44;107360;1273;22524;-78
2023/12/12 04:27:31;;;;;;;15.60;9.60;;;;;;;4.22;100.00;96808.55;107317;1260;22582;-78
2023/12/12 04:29:59;;;;;;;11.20;8.10;;;;;;;4.23;100.00;96808.27;107098;1260;22524;-78
2023/12/12 04:32:27;;;;;;;14.00;8.40;;;;;;;4.23;100.00;96812.41;106950;1272;25515;-78
2023/12/12 04:34:55;;;;;;;14.90;8.70;;;;;;;4.25;100.00;96815.54;107360;1274;22560;-76
2023/12/12 04:37:23;;;;;;;12.00;8.90;;;;;;;4.24;100.00;96818.92;107585;1263;22549;-76
2023/12/12 04:39:51;;;;;;;12.90;8.20;;;;;;;4.23;100.00;96827.02;107059;1261;22560;-77
2023/12/12 04:42:19;;;;;;;10.10;7.30;;;;;;;4.23;100.00;96830.17;107065;1274;22777;-77
2023/12/12 04:44:47;;;;;;;12.50;7.60;;;;;;;4.24;100.00;96831.30;107047;1264;22542;-76
2023/12/12 04:47:15;;;;;;;10.80;6.70;;;;;;;4.24;100.00;96841.34;107194;1273;22520;-77
2023/12/12 04:49:44;;;;;;;9.00;6.70;;;;;;;4.26;100.00;96841.36;107064;1267;22530;-76
2023/12/12 04:52:12;;;;;;;8.80;6.80;;;;;;;4.23;100.00;96840.38;107095;1274;24344;-77
2023/12/12 04:54:40;;;;;;;10.30;7.30;;;;;;;4.24;100.00;96849.70;107151;1258;25294;-77
2023/12/12 04:57:08;;;;;;;12.50;7.00;;;;;;;4.25;100.00;96850.89;107091;1257;22733;-78
2023/12/12 04:59:36;;;;;;;11.40;7.90;;;;;;;4.30;100.00;96849.80;107336;1273;24282;-77
2023/12/12 05:02:06;;;;;;;8.40;6.30;;;;;;;4.28;100.00;96853.59;106927;1264;22528;-77
2023/12/12 05:04:35;;;;;;;7.40;5.80;;;;;;;4.27;100.00;96857.02;107020;1273;24445;-76
2023/12/12 05:07:04;;;;;;;9.90;7.40;;;;;;;4.29;100.00;96853.33;106990;1263;22566;-76
2023/12/12 05:09:32;;;;;;;10.70;6.40;;;;;;;4.29;100.00;96855.73;106957;1261;24212;-75
2023/12/12 05:12:00;;;;;;;8.60;6.30;;;;;;;4.28;100.00;96854.96;107006;1269;22898;-78
2023/12/12 05:14:28;;;;;;;9.30;6.80;;;;;;;4.29;100.00;96851.39;107071;1261;22545;-76
2023/12/12 05:16:56;;;;;;;11.20;8.00;;;;;;;4.29;100.00;96852.25;107018;1270;25240;-76
2023/12/12 05:19:37;;;;;;;9.70;7.70;;;;;;;4.27;100.00;96860.64;107149;1274;25395;-77
2023/12/12 05:22:05;;;;;;;9.30;7.50;;;;;;;4.26;100.00;96861.88;106921;1260;23920;-78
2023/12/12 05:24:33;;;;;;;9.30;7.40;;;;;;;4.24;100.00;96867.03;107508;1267;24347;-76
2023/12/12 05:27:02;;;;;;;9.60;6.90;;;;;;;4.25;100.00;96876.56;106907;1260;22531;-76
2023/12/12 05:29:29;;;;;;;10.00;7.90;;;;;;;4.24;100.00;96882.17;107097;1272;25548;-76
2023/12/12 05:31:58;;;;;;;11.00;7.70;;;;;;;4.22;100.00;96887.16;107060;1263;23918;-77
2023/12/12 05:34:26;;;;;;;12.30;8.30;;;;;;;4.18;100.00;96892.26;107035;1274;23234;-77
2023/12/12 05:36:54;;;;;;;11.40;7.20;;;;;;;4.16;100.00;96895.69;107090;1251;23905;-78
2023/12/12 05:39:22;;;;;;;11.10;6.90;;;;;;;4.15;100.00;96893.04;107327;1271;24256;-76
2023/12/12 05:41:50;;;;;;;13.50;7.40;;;;;;;4.13;100.00;96896.14;107121;1260;22530;-78
2023/12/12 05:44:18;;;;;;;13.20;7.90;;;;;;;4.08;100.00;96900.83;107251;1274;26513;-77
2023/12/12 05:46:47;;;;;;;11.70;7.80;;;;;;;4.07;100.00;96902.74;107189;1263;22539;-77
2023/12/12 05:49:15;;;;;;;12.00;7.40;;;;;;;4.05;100.00;96907.73;107254;1273;22535;-77
2023/12/12 05:51:43;;;;;;;13.40;9.00;;;;;;;4.04;100.00;96910.46;107331;1263;25245;-77
2023/12/12 05:54:11;;;;;;;10.90;8.00;;;;;;;4.02;100.00;96916.02;107403;1271;24379;-77
2023/12/12 05:56:45;;;;;;;12.50;9.70;;;;;;;3.99;100.00;96913.70;107404;1264;22568;-79
2023/12/12 05:59:14;;;;;;;11.20;10.20;;;;;;;3.97;100.00;96915.80;107335;1273;25575;-78
2023/12/12 06:01:43;;;;;;;21.20;14.80;;;;;;;3.97;100.00;96927.38;107453;1260;22527;-78
2023/12/12 06:04:12;;;;;;;51.40;25.20;;;;;;;3.96;100.00;96929.73;107331;1275;22540;-79
2023/12/12 06:06:42;;;;;;;10.50;8.90;;;;;;;3.95;100.00;96936.41;107434;1273;22526;-78
2023/12/12 06:09:11;;;;;;;13.50;10.00;;;;;;;3.93;100.00;96937.26;107119;1264;25408;-78
2023/12/12 06:11:41;;;;;;;10.70;9.00;;;;;;;3.91;100.00;96937.27;107215;1260;22554;-77
2023/12/12 06:14:10;;;;;;;11.70;9.10;;;;;;;3.90;100.00;96941.66;107237;1274;22572;-78
2023/12/12 06:16:38;;;;;;;11.30;9.80;;;;;;;3.90;100.00;96946.92;107478;1267;23130;-79
2023/12/12 06:19:06;;;;;;;13.80;10.30;;;;;;;3.90;100.00;96949.96;107230;1273;22620;-78
2023/12/12 06:21:36;;;;;;;11.40;9.40;;;;;;;3.88;100.00;96953.77;107211;1274;24378;-77
2023/12/12 06:24:05;;;;;;;12.70;9.20;;;;;;;3.90;100.00;96965.00;107053;1273;24207;-76
2023/12/12 06:26:33;;;;;;;12.40;10.40;;;;;;;3.88;100.00;96966.66;107147;1274;22545;-77
2023/12/12 06:29:02;;;;;;;12.30;9.70;;;;;;;3.88;100.00;96971.25;107069;1274;22530;-77
2023/12/12 06:31:31;;;;;;;14.90;11.10;;;;;;;3.89;100.00;96972.05;107298;1274;25386;-75
2023/12/12 06:33:59;;;;;;;12.70;10.80;;;;;;;3.89;100.00;96977.86;107034;1261;22534;-76
2023/12/12 06:36:27;;;;;;;12.60;10.80;;;;;;;3.89;100.00;96980.09;107076;1260;22538;-76
2023/12/12 06:38:55;;;;;;;15.50;11.70;;;;;;;3.86;100.00;96983.26;106901;1267;25446;-76
2023/12/12 06:41:23;;;;;;;13.70;11.20;;;;;;;3.84;100.00;96983.92;107056;1273;22530;-77
2023/12/12 06:43:51;;;;;;;11.70;10.40;;;;;;;3.82;100.00;96990.16;107056;1260;25402;-76
2023/12/12 06:46:20;;;;;;;12.20;11.00;;;;;;;3.83;100.00;96991.86;106954;1270;22526;-76
2023/12/12 06:48:48;;;;;;;15.10;12.00;;;;;;;3.81;100.00;96993.48;106940;1264;22630;-75
2023/12/12 06:51:16;;;;;;;13.80;12.00;;;;;;;3.80;100.00;96995.67;106987;1272;22532;-76
2023/12/12 06:53:44;;;;;;;15.40;11.40;;;;;;;3.82;100.00;97001.41;107055;1267;23303;-75
2023/12/12 06:56:13;;;;;;;13.30;11.90;;;;;;;3.81;100.00;97007.21;106960;1270;22534;-76
2023/12/12 06:58:41;;;;;;;13.90;12.40;;;;;;;3.78;100.00;97008.95;107382;1274;22549;-77
2023/12/12 07:01:09;;;;;;;14.00;12.50;;;;;;;3.78;100.00;97013.36;106902;1272;22647;-77
2023/12/12 07:03:37;;;;;;;16.10;14.00;;;;;;;3.79;100.00;97020.77;107049;1273;24215;-74
2023/12/12 07:06:09;;;;;;;13.20;11.80;;;;;;;3.81;100.00;97024.86;107056;1274;22793;-78
2023/12/12 07:08:37;;;;;;;14.30;11.50;;;;;;;3.82;100.00;97018.94;106964;1273;22657;-77
2023/12/12 07:11:05;;;;;;;13.80;12.10;;;;;;;3.86;100.00;97015.77;107467;1261;22462;-78
2023/12/12 07:13:33;;;;;;;12.70;10.30;;;;;;;3.86;100.00;97020.35;107519;1273;25427;-78
2023/12/12 07:16:13;;;;;;;16.10;11.80;;;;;;;3.88;100.00;97022.64;107469;1273;25313;-79
2023/12/12 07:18:41;;;;;;;12.20;10.80;;;;;;;3.89;100.00;97029.08;107419;1273;22559;-81
2023/12/12 07:21:09;;;;;;;13.70;10.00;;;;;;;3.92;100.00;97029.42;107277;1274;24376;-78
2023/12/12 07:23:38;;;;;;;13.00;11.60;;;;;;;3.92;100.00;97027.08;107396;1254;24218;-78
2023/12/12 07:26:06;;;;;;;14.30;11.80;;;;;;;3.93;100.00;97026.88;106941;1267;22554;-79
2023/12/12 07:28:34;;;;;;;16.70;14.90;;;;;;;3.95;100.00;97028.02;107586;1266;25284;-79
2023/12/12 07:31:04;;;;;;;19.40;15.40;;;;;;;3.98;100.00;97027.15;107234;1273;22558;-79
2023/12/12 07:33:33;;;;;;;16.90;14.40;;;;;;;4.01;100.00;97027.88;107387;1260;25396;-78
2023/12/12 07:36:01;;;;;;;18.10;13.80;;;;;;;4.07;100.00;97032.27;107509;1267;22546;-78
2023/12/12 07:38:29;;;;;;;18.70;14.00;;;;;;;4.12;100.00;97026.84;107838;1257;24212;-78
2023/12/12 07:40:59;;;;;;;18.50;12.60;;;;;;;4.13;100.00;97036.16;107799;1267;22525;-78
2023/12/12 07:43:27;;;;;;;19.30;13.10;;;;;;;4.12;100.00;97039.00;107794;1273;22570;-79
2023/12/12 07:45:55;;;;;;;15.60;12.40;;;;;;;4.15;100.00;97043.77;107809;1274;22538;-79
2023/12/12 07:48:23;;;;;;;16.90;13.50;;;;;;;4.16;100.00;97050.59;107895;1273;24233;-79
2023/12/12 07:50:51;;;;;;;14.70;12.70;;;;;;;4.20;100.00;97053.30;107721;1264;22538;-78
2023/12/12 07:53:19;;;;;;;11.60;9.80;;;;;;;4.24;100.00;97062.00;107000;1270;23387;-82
2023/12/12 07:55:47;;;;;;;12.90;10.40;;;;;;;4.25;100.00;97068.01;107304;1260;22636;-79
2023/12/12 07:58:15;;;;;;;13.20;11.50;;;;;;;4.22;100.00;97081.91;107298;1273;25420;-80
2023/12/12 08:00:44;;;;;;;15.70;12.20;;;;;;;4.23;100.00;97075.98;107337;1273;22657;-79
2023/12/12 08:03:13;;;;;;;51.20;45.80;;;;;;;4.24;100.00;97078.75;107305;1269;22524;-77
2023/12/12 08:05:41;;;;;;;14.10;12.00;;;;;;;4.25;100.00;97079.21;106922;1274;22647;-79
2023/12/12 08:08:10;;;;;;;15.50;12.50;;;;;;;4.26;100.00;97078.89;107304;1273;24212;-78
2023/12/12 08:10:38;;;;;;;16.40;14.20;;;;;;;4.27;100.00;97093.88;107068;1270;22535;-78
2023/12/12 08:13:08;;;;;;;15.40;13.80;;;;;;;4.23;100.00;97093.95;106971;1270;24242;-80
2023/12/12 08:15:37;;;;;;;17.20;13.50;;;;;;;4.20;100.00;97096.64;107542;1263;23872;-79
2023/12/12 08:18:05;;;;;;;15.60;11.60;;;;;;;4.19;100.00;97096.83;107424;1267;24606;-78
2023/12/12 08:20:33;;;;;;;11.90;10.20;;;;;;;4.18;100.00;97093.19;107372;1270;23883;-79
2023/12/12 08:23:01;;;;;;;18.40;13.00;;;;;;;4.18;100.00;97099.59;107372;1266;25328;-80
2023/12/12 08:25:29;;;;;;;15.10;12.10;;;;;;;4.18;100.00;97097.73;107739;1261;24179;-79
2023/12/12 08:27:57;;;;;;;14.20;12.90;;;;;;;4.20;100.00;97096.05;107307;1263;22467;-79
2023/12/12 08:30:26;;;;;;;18.00;13.30;;;;;;;4.23;100.00;97089.15;107302;1274;22616;-78
2023/12/12 08:32:54;;;;;;;13.80;11.10;;;;;;;4.27;100.00;97098.25;107192;1274;22546;-79
2023/12/12 08:35:22;;;;;;;12.00;10.70;;;;;;;4.28;100.00;97093.02;107342;1261;22526;-79
2023/12/12 08:37:50;;;;;;;10.60;9.50;;;;;;;4.31;100.00;97100.84;107417;1273;24216;-78
2023/12/12 08:40:18;;;;;;;16.20;12.00;;;;;;;4.38;100.00;97107.19;107025;1264;25268;-79
2023/12/12 08:42:46;;;;;;;28.70;25.00;;;;;;;4.42;100.00;97108.48;107467;1261;25245;-79
2023/12/12 08:45:14;;;;;;;26.90;24.30;;;;;;;4.49;100.00;97113.72;107216;1264;24340;-79
2023/12/12 08:47:42;;;;;;;19.50;17.30;;;;;;;4.50;100.00;97121.60;107378;1273;24276;-78
2023/12/12 08:50:11;;;;;;;21.10;17.70;;;;;;;4.52;100.00;97122.19;107411;1271;22908;-79
2023/12/12 08:52:39;;;;;;;18.10;15.60;;;;;;;4.57;100.00;97123.10;107334;1274;23382;-79
2023/12/12 08:55:11;;;;;;;16.90;14.00;;;;;;;4.61;100.00;97130.81;107377;1272;22627;-79
2023/12/12 08:57:40;;;;;;;16.40;14.20;;;;;;;4.64;100.00;97130.09;107407;1273;22585;-79
2023/12/12 09:00:10;;;;;;;18.70;16.70;;;;;;;4.66;100.00;97133.65;107405;1260;24371;-78
2023/12/12 09:02:39;;;;;;;18.50;16.30;;;;;;;4.67;100.00;97132.10;107031;1274;22542;-79
2023/12/12 09:05:08;;;;;;;17.70;14.20;;;;;;;4.63;100.00;97130.27;107271;1274;26205;-78
2023/12/12 09:07:36;;;;;;;22.20;17.10;;;;;;;4.65;100.00;97131.75;107207;1264;25322;-81
2023/12/12 09:10:06;;;;;;;16.50;12.90;;;;;;;4.65;100.00;97133.67;107318;1274;22531;-80
2023/12/12 09:12:34;;;;;;;15.90;13.70;;;;;;;4.63;100.00;97126.58;107323;1267;24343;-81
2023/12/12 09:15:03;;;;;;;17.50;13.00;;;;;;;4.62;100.00;97130.11;107397;1263;22523;-80
2023/12/12 09:17:31;;;;;;;20.20;17.60;;;;;;;4.60;100.00;97131.09;107405;1267;24411;-78
2023/12/12 09:20:00;;;;;;;23.20;19.50;;;;;;;4.59;100.00;97134.30;106876;1272;24250;-79
2023/12/12 09:22:30;;;;;;;24.10;21.50;;;;;;;4.58;100.00;97127.65;107308;1260;22565;-79
2023/12/12 09:24:58;;;;;;;19.10;16.70;;;;;;;4.57;100.00;97126.67;107211;1264;22538;-78
2023/12/12 09:27:26;;;;;;;22.90;20.50;;;;;;;4.57;100.00;97124.44;107309;1273;25427;-78
2023/12/12 09:29:54;;;;;;;20.70;18.60;;;;;;;4.59;100.00;97132.70;107282;1263;24326;-79
2023/12/12 09:32:22;;;;;;;22.30;17.30;;;;;;;4.59;100.00;97127.52;107286;1273;22535;-79
2023/12/12 09:34:50;;;;;;;20.70;14.90;;;;;;;4.60;100.00;97127.46;107216;1274;22543;-78
2023/12/12 09:37:23;;;;;;;18.10;13.00;;;;;;;4.61;100.00;97126.17;107466;1274;22561;-79
2023/12/12 09:39:51;;;;;;;19.60;15.90;;;;;;;4.62;100.00;97126.70;107002;1260;22537;-79
2023/12/12 09:42:22;;;;;;;18.80;14.30;;;;;;;4.65;100.00;97123.58;107598;1273;25378;-79
2023/12/12 09:44:59;;;;;;;19.40;17.30;;;;;;;4.69;100.00;97120.81;107471;1260;23486;-80
2023/12/12 09:47:28;;;;;;;15.60;13.70;;;;;;;4.73;100.00;97118.91;107452;1274;23897;-78
2023/12/12 09:49:59;;;;;;;17.50;14.30;;;;;;;4.77;100.00;97115.63;107409;1273;25341;-77
2023/12/12 09:52:35;;;;;;;17.80;15.30;;;;;;;4.81;100.00;97118.65;107036;1274;170429;-79
2023/12/12 09:55:05;;;;;;;20.80;17.00;;;;;;;4.81;100.00;97117.48;107213;1267;22531;-77
2023/12/12 09:57:34;;;;;;;19.30;14.90;;;;;;;4.84;100.00;97125.08;107040;1259;22541;-77
2023/12/12 10:00:04;;;;;;;15.60;13.30;;;;;;;4.86;100.00;97123.08;106895;1274;23911;-77
2023/12/12 10:02:36;;;;;;;21.80;17.20;;;;;;;4.86;100.00;97123.94;107039;1272;24268;-76
2023/12/12 10:05:05;;;;;;;21.40;19.30;;;;;;;4.81;100.00;97126.59;107038;1273;25466;-75
2023/12/12 10:07:34;;;;;;;23.50;21.10;;;;;;;4.75;100.00;97126.38;106799;1269;22601;-76
2023/12/12 10:10:07;;;;;;;19.00;17.00;;;;;;;4.71;100.00;97122.30;107109;1264;22768;-77
2023/12/12 10:12:35;;;;;;;19.40;16.10;;;;;;;4.68;100.00;97128.89;107034;1264;24965;-77
2023/12/12 10:15:20;;;;;;;18.30;15.70;;;;;;;4.66;100.00;97132.02;106996;1263;22560;-77
2023/12/12 10:17:48;;;;;;;17.20;15.40;;;;;;;4.60;100.00;97128.90;107324;1260;22539;-78
2023/12/12 10:20:25;;;;;;;17.00;13.30;;;;;;;4.56;100.00;97126.05;106975;1251;22749;-77
2023/12/12 10:22:57;;;;;;;19.10;14.60;;;;;;;4.54;100.00;97129.79;107131;1270;22665;-76
2023/12/12 10:25:26;;;;;;;14.30;12.30;;;;;;;4.52;100.00;97127.79;107051;1262;25404;-76
2023/12/12 10:27:55;;;;;;;15.90;13.50;;;;;;;4.46;100.00;97134.92;107114;1275;22643;-76
2023/12/12 10:30:24;;;;;;;18.40;15.50;;;;;;;4.45;100.00;97138.30;107069;1267;22538;-77
2023/12/12 10:32:53;;;;;;;18.20;15.90;;;;;;;4.45;100.00;97137.55;107059;1267;25491;-77
2023/12/12 10:35:23;;;;;;;18.10;15.10;;;;;;;4.43;100.00;97139.48;106951;1267;22560;-77
2023/12/12 10:37:52;;;;;;;22.30;20.00;;;;;;;4.41;100.00;97144.92;106977;1274;22533;-77
2023/12/12 10:40:22;;;;;;;22.80;16.90;;;;;;;4.38;100.00;97143.52;107402;1259;22755;-77
2023/12/12 10:42:52;;;;;;;20.40;17.20;;;;;;;4.37;100.00;97143.52;107338;1274;22633;-77
2023/12/12 10:45:20;;;;;;;25.00;19.30;;;;;;;4.38;100.00;97151.20;107059;1263;24285;-77
2023/12/12 10:47:51;;;;;;;28.30;20.40;;;;;;;4.37;100.00;97146.70;107034;1263;22540;-76
2023/12/12 10:50:20;;;;;;;20.00;15.90;;;;;;;4.39;100.00;97147.14;106990;1267;22550;-76
2023/12/12 10:52:48;;;;;;;23.90;18.00;;;;;;;4.41;100.00;97144.24;106798;1273;22697;-77
2023/12/12 10:55:19;;;;;;;26.70;20.30;;;;;;;4.46;100.00;97153.48;107034;1256;24301;-77
2023/12/12 10:57:48;;;;;;;22.20;18.30;;;;;;;4.48;100.00;97152.14;106983;1260;24375;-77
2023/12/12 11:00:19;;;;;;;27.00;21.30;;;;;;;4.51;100.00;97152.23;107104;1267;25424;-79
2023/12/12 11:02:48;;;;;;;25.10;18.60;;;;;;;4.52;100.00;97147.31;107476;1273;24036;-77
2023/12/12 11:05:16;;;;;;;25.70;19.60;;;;;;;4.57;100.00;97145.67;107485;1273;22554;-77
2023/12/12 11:07:48;;;;;;;22.30;18.90;;;;;;;4.62;100.00;97151.73;107354;1257;25416;-77
2023/12/12 11:10:19;;;;;;;22.90;19.90;;;;;;;4.65;100.00;97151.92;107373;1273;22570;-76
2023/12/12 11:12:52;;;;;;;25.10;20.70;;;;;;;4.65;100.00;97150.06;107254;1267;23134;-77
2023/12/12 11:15:22;;;;;;;26.60;23.10;;;;;;;4.65;100.00;97149.95;107228;1266;22688;-76
2023/12/12 11:17:51;;;;;;;28.10;22.60;;;;;;;4.66;100.00;97152.76;107066;1273;26530;-77